createdAt,value
2022-10-18T00:00:36.954Z,7.57
2022-10-18T00:05:09.325Z,7.81
2022-10-18T00:10:17.830Z,7.81
2022-10-18T00:15:26.924Z,7.66
2022-10-18T00:20:35.439Z,7.66
2022-10-18T00:25:44.564Z,7.65
2022-10-18T00:30:57.962Z,7.65
2022-10-18T00:36:15.256Z,7.59
2022-10-18T00:41:32.209Z,7.59
2022-10-18T00:46:49.678Z,7.62
2022-10-18T00:52:07.249Z,7.62
2022-10-18T00:57:24.529Z,7.56
2022-10-18T01:02:42.079Z,7.56
2022-10-18T01:07:59.564Z,7.74
2022-10-18T01:13:16.208Z,7.74
2022-10-18T01:18:35.408Z,7.61
2022-10-18T01:23:51.849Z,7.61
2022-10-18T01:29:09.167Z,7.62
2022-10-18T01:34:26.615Z,7.62
2022-10-18T01:38:11.477Z,7.71
2022-10-18T01:43:21.171Z,7.71
2022-10-18T01:48:30.288Z,7.71
2022-10-18T01:53:39.411Z,7.71
2022-10-18T01:58:48.525Z,7.85
2022-10-18T02:03:57.678Z,7.58
2022-10-18T02:09:06.119Z,7.58
2022-10-18T02:14:15.885Z,7.68
2022-10-18T02:24:34.122Z,7.59
2022-10-18T02:29:43.918Z,7.59
2022-10-18T02:34:52.375Z,7.62
2022-10-18T02:40:02.236Z,7.62
2022-10-18T02:45:11.887Z,7.76
2022-10-18T02:50:20.366Z,7.76
2022-10-18T02:55:30.816Z,7.52
2022-10-18T03:00:39.239Z,7.52
2022-10-18T03:05:54.676Z,7.46
2022-10-18T03:11:33.397Z,7.46
2022-10-18T03:16:42.448Z,7.48
2022-10-18T03:21:50.929Z,7.48
2022-10-18T03:27:02.863Z,7.46
2022-10-18T03:32:19.343Z,7.46
2022-10-18T03:37:35.565Z,7.44
2022-10-18T03:42:52.850Z,7.44
2022-10-18T03:48:09.092Z,7.71
2022-10-18T03:53:26.529Z,7.71
2022-10-18T04:04:00.372Z,7.47
2022-10-18T04:08:27.007Z,7.51
2022-10-18T04:14:34.607Z,7.51
2022-10-18T04:19:51.892Z,7.69
2022-10-18T04:24:31.918Z,7.69
2022-10-18T04:29:48.070Z,7.75
2022-10-18T04:40:18.463Z,7.69
2022-10-18T04:45:34.627Z,7.69
2022-10-18T04:49:59.531Z,7.59
2022-10-18T04:54:33.806Z,7.59
2022-10-18T04:59:42.288Z,7.65
2022-10-18T05:04:50.131Z,7.82
2022-10-18T05:09:59.279Z,7.82
2022-10-18T05:15:09.002Z,7.83
2022-10-18T05:20:18.836Z,7.83
2022-10-18T05:25:29.166Z,7.93
2022-10-18T05:30:38.958Z,7.93
2022-10-18T05:35:47.420Z,7.84
2022-10-18T05:40:56.503Z,7.84
2022-10-18T05:46:13.875Z,8.03
2022-10-18T05:51:13.484Z,8.03
2022-10-18T05:56:24.568Z,8.05
2022-10-18T06:01:34.297Z,8.05
2022-10-18T06:06:44.079Z,8.17
2022-10-18T06:11:52.499Z,8.17
2022-10-18T06:17:00.995Z,8
2022-10-18T06:22:10.125Z,8
2022-10-18T06:27:22.769Z,8.25
2022-10-18T06:32:38.925Z,8.25
2022-10-18T06:37:56.371Z,8.26
2022-10-18T06:43:21.840Z,8.26
2022-10-18T06:53:58.976Z,7.94
2022-10-18T06:59:03.090Z,8.42
2022-10-18T07:04:19.728Z,8.42
2022-10-18T07:09:38.819Z,8.67
2022-10-18T07:15:05.602Z,8.67
2022-10-18T07:19:23.332Z,8.44
2022-10-18T07:24:00.852Z,8.44
2022-10-18T07:29:11.642Z,8.47
2022-10-18T07:34:21.018Z,8.47
2022-10-18T07:39:30.132Z,8.65
2022-10-18T07:44:39.251Z,8.65
2022-10-18T07:49:49.066Z,8.46
2022-10-18T07:54:58.145Z,8.46
2022-10-18T08:00:08.856Z,8.9
2022-10-18T08:05:24.433Z,8.9
2022-10-18T08:10:39.267Z,8.88
2022-10-18T08:15:55.429Z,9.23
2022-10-18T08:21:39.557Z,9.23
2022-10-18T08:26:25.820Z,9.33
2022-10-18T08:31:41.357Z,9.33
2022-10-18T08:36:56.873Z,9.16
2022-10-18T08:42:13.027Z,9.16
2022-10-18T08:47:29.468Z,9.78
2022-10-18T08:52:45.995Z,9.78
2022-10-18T08:58:00.233Z,9.79
2022-10-18T09:02:36.422Z,9.79
2022-10-18T09:08:31.934Z,10.05
2022-10-18T09:12:52.529Z,10.05
2022-10-18T09:18:09.332Z,10.13
2022-10-18T09:23:25.565Z,10.13
2022-10-18T09:28:42.460Z,10.33
2022-10-18T09:44:30.934Z,10.18
2022-10-18T09:49:47.650Z,9.79
2022-10-18T09:55:03.852Z,9.79
2022-10-18T10:00:21.157Z,9.89
2022-10-18T10:05:39.318Z,9.89
2022-10-18T10:11:13.498Z,9.86
2022-10-18T10:15:42.535Z,9.86
2022-10-18T10:20:07.277Z,9.75
2022-10-18T10:25:24.373Z,9.75
2022-10-18T10:30:24.196Z,10.08
2022-10-18T10:35:56.702Z,10.08
2022-10-18T10:40:57.752Z,9.99
2022-10-18T10:46:29.061Z,9.99
2022-10-18T10:50:55.502Z,9.9
2022-10-18T10:55:36.107Z,9.9
2022-10-18T11:00:34.766Z,10.31
2022-10-18T11:05:44.563Z,10.31
2022-10-18T11:10:54.412Z,10.41
2022-10-18T11:16:05.388Z,10.41
2022-10-18T11:19:32.070Z,10.43
2022-10-18T11:25:40.062Z,10.43
2022-10-18T11:26:19.993Z,10.43
2022-10-18T11:31:16.075Z,10.45
2022-10-18T11:37:38.828Z,10.17
2022-10-18T11:41:30.394Z,10.17
2022-10-18T11:46:31.256Z,9.61
2022-10-18T11:58:07.587Z,9.61
2022-10-18T12:17:57.976Z,9.45
2022-10-18T12:23:11.673Z,9.45
2022-10-18T12:32:05.012Z,9.78
2022-10-18T12:44:18.821Z,9.39
2022-10-18T12:48:44.423Z,9
2022-10-18T12:54:51.577Z,9
2022-10-18T13:00:09.437Z,9.02
2022-10-18T13:26:36.859Z,8.77
2022-10-18T13:31:03.188Z,8.28
2022-10-18T13:34:40.781Z,8.28
2022-10-18T13:39:14.184Z,8.1
2022-10-18T13:44:23.930Z,8.1
2022-10-18T13:49:33.019Z,8.25
2022-10-18T13:54:42.182Z,8.25
2022-10-18T13:59:54.499Z,8.13
2022-10-18T14:05:30.471Z,8.13
2022-10-18T14:11:04.222Z,8.16
2022-10-18T14:15:48.048Z,8.16
2022-10-18T14:21:22.699Z,8.05
2022-10-18T14:26:06.950Z,8.05
2022-10-18T14:31:15.413Z,8.27
2022-10-18T14:36:24.545Z,8.27
2022-10-18T14:41:33.702Z,7.92
2022-10-18T14:46:42.786Z,7.92
2022-10-18T14:51:53.181Z,8.05
2022-10-18T14:57:02.369Z,8.05
2022-10-18T15:02:10.779Z,7.67
2022-10-18T15:07:19.896Z,7.86
2022-10-18T15:13:11.955Z,7.86
2022-10-18T15:17:39.413Z,7.97
2022-10-18T15:22:50.150Z,7.97
2022-10-18T15:27:58.337Z,7.73
2022-10-18T15:33:08.050Z,7.73
2022-10-18T15:38:18.949Z,7.82
2022-10-18T15:43:35.778Z,7.82
2022-10-18T15:48:36.697Z,7.9
2022-10-18T15:54:06.782Z,7.9
2022-10-18T15:59:23.586Z,7.97
2022-10-18T16:04:38.510Z,7.97
2022-10-18T16:09:54.625Z,7.68
2022-10-18T16:15:10.176Z,7.68
2022-10-18T16:20:25.664Z,8.1
2022-10-18T16:25:43.434Z,8.1
2022-10-18T16:30:56.058Z,7.77
2022-10-18T16:36:15.442Z,7.77
2022-10-18T16:41:30.287Z,7.8
2022-10-18T16:46:46.467Z,7.8
2022-10-18T16:52:03.254Z,7.82
2022-10-18T16:57:20.697Z,7.82
2022-10-18T17:02:35.657Z,7.74
2022-10-18T17:07:00.465Z,7.74
2022-10-18T17:11:26.738Z,7.79
2022-10-18T17:16:42.907Z,7.79
2022-10-18T17:22:02.381Z,7.81
2022-10-18T17:27:37.871Z,7.81
2022-10-18T17:32:31.291Z,7.73
2022-10-18T17:37:47.442Z,7.73
2022-10-18T17:43:02.939Z,7.77
2022-10-18T17:48:19.743Z,7.77
2022-10-18T17:53:37.043Z,7.65
2022-10-18T17:58:51.425Z,7.65
2022-10-18T18:04:09.628Z,7.57
2022-10-18T18:09:22.492Z,7.46
2022-10-18T18:14:38.619Z,7.46
2022-10-18T18:19:53.524Z,7.78
2022-10-18T18:24:18.383Z,7.78
2022-10-18T18:28:51.589Z,7.55
2022-10-18T18:33:59.923Z,7.55
2022-10-18T18:39:07.728Z,7.22
2022-10-18T18:44:16.838Z,7.22
2022-10-18T18:49:27.258Z,7.49
2022-10-18T18:54:35.737Z,7.49
2022-10-18T18:59:44.854Z,7.68
2022-10-18T19:04:54.618Z,7.68
2022-10-18T19:10:03.102Z,7.51
2022-10-18T19:15:10.946Z,7.51
2022-10-18T19:20:20.076Z,7.31
2022-10-18T19:25:30.449Z,7.31
2022-10-18T19:30:40.838Z,7.34
2022-10-18T19:35:51.239Z,7.34
2022-10-18T19:40:59.724Z,7.7
2022-10-18T19:46:08.872Z,7.7
2022-10-18T19:51:28.762Z,7.59
2022-10-18T19:56:29.018Z,7.59
2022-10-18T20:01:44.986Z,7.42
2022-10-18T20:07:01.811Z,7.42
2022-10-18T20:12:18.767Z,7.58
2022-10-18T20:17:35.442Z,7.58
2022-10-18T20:22:53.644Z,7.4
2022-10-18T20:28:10.223Z,7.4
2022-10-18T20:33:26.289Z,7.41
2022-10-18T20:38:43.734Z,7.41
2022-10-18T20:44:01.165Z,7.42
2022-10-18T20:49:18.611Z,7.42
2022-10-18T20:53:46.050Z,7.48
2022-10-18T20:58:20.363Z,7.48
2022-10-18T21:03:30.169Z,7.24
2022-10-18T21:08:43.414Z,7.24
2022-10-18T21:14:29.667Z,7.39
2022-10-18T21:19:45.861Z,7.36
2022-10-18T21:25:00.718Z,7.36
2022-10-18T21:30:16.288Z,7.24
2022-10-18T21:35:32.413Z,7.24
2022-10-18T21:40:50.539Z,7.45
2022-10-18T21:46:05.337Z,7.45
2022-10-18T21:51:20.257Z,7.3
2022-10-18T21:55:44.465Z,7.3
2022-10-18T22:00:16.594Z,7.36
2022-10-18T22:05:24.712Z,7.36
2022-10-18T22:10:32.527Z,7.09
2022-10-18T22:15:41.698Z,7.09
2022-10-18T22:20:50.765Z,7.19
2022-10-18T22:25:59.885Z,7.19
2022-10-18T22:31:09.647Z,7.1
2022-10-18T22:36:18.933Z,7.1
2022-10-18T22:41:28.528Z,7.15
2022-10-18T22:46:37.650Z,7.15
2022-10-18T22:51:48.057Z,7.19
2022-10-18T22:56:56.524Z,7.19
2022-10-18T23:02:04.995Z,7.63
2022-10-18T23:07:13.501Z,7.63
2022-10-18T23:12:22.602Z,7.2
2022-10-18T23:17:36.962Z,7.2
2022-10-18T23:22:54.614Z,7.32
2022-10-18T23:28:12.690Z,7.32
2022-10-18T23:33:30.810Z,7.31
2022-10-18T23:38:47.110Z,7.31
2022-10-18T23:44:06.935Z,7.23
2022-10-18T23:49:25.182Z,7.23
2022-10-18T23:54:41.361Z,7.42
2022-10-18T23:59:58.778Z,7.42
